Aérodrome :
LOGIN :

S'inscrire | Disclaimer

   EN    FR    IT 

 










Légende :    VFR   VFR Marginal   IFR   IFR Intensif   IFR Très Intensif
Visi : 
Plafond : 
>= 8 km
>= 3000ft
5 à 8 km
1000 à 3000 ft
1500m à 5 km
500 à 1000 ft
800 à 1500m
200 à 500 ft
< 800m
< 200 ft
Symboles :   Orages  Brouillard  Fortes neiges  Fortes précipitations  Vent > 20 kt
SIGMETs :   Divers  Orages  Givrage  Turbulence  Onde Orograph.  Cendres Volcan.






- Altitude de l'aérodrome : 1197 ft
- Code IATA : SPM


ETAD - Spangdahlem Ab

DERNIER METAR :
  • 262356Z AUTO 00000KT 9999 CLR 12/06 A3053 RMK AO2 SLP324 T01200056 10194 20111 57002 $

METARs EXPIRÉS :
  • 262256Z AUTO 00000KT 9999 CLR 11/06 A3054 RMK AO2 SLP329 T01110060 402250071 $
  • 262156Z AUTO 09005KT 9999 CLR 13/06 A3054 RMK AO2 SLP326 T01260062 $

TAF AMD TAF ETAD
Valide du 26 à 20h jusqu'au 28 à 02h UTC


262015Z 2620/2802 06009KT 9999 FEW060 SCT200 QNH3047INS
BECMG 2716/2717 03006KT 9999 BKN050 QNH3046INS TX22/2714Z TN07/2704Z LAST NO AMDS AFT 2620 NEXT 2704



MET'MAP, la Météo Aéronautique d'un coup d'oeil ! - Copyright ORBIFLY Décembre 2007 - Disclaimer

ORBIFLY MET'MAP TEAM :

Programmation & Développement : Alexandra Zaïnal
Sur une idée originale de : Baudouin d'Aumeries
Assistance à la programmation : Marc-Olivier Méhu
Soutien technique & logistique : Manuel Goepfert

Contact : metmap@orbifly.com




SOURCES & CREDITS :

   NOAA